Historique des stations

Station météo de Saint-Michel-en-Brenne

Altitude de la station : 93 m







Données météorologiques pour le 17/01/2021
Date
Heure
Températures Humidité Point de rosée Vitesse
du vent
Direction Rafales Windchill Pression Pluviométrie
Cumul
Date
Heure
Températures Humidité Point de rosée Vitesse
du vent
Direction Rafales Windchill Pression Pluviométrie
Cumul
17/01/2021 13:598.4 °C69 %2.8 °C5 km/hNO26 km/h7.8 1029 hPa0.4 mm
17/01/2021 13:448.4 °C70 %3.3 °C2 km/hO26 km/h8.3 1029 hPa0.4 mm
17/01/2021 13:298.7 °C71 %3.9 °C10 km/hNO26 km/h7.2 1029 hPa0.4 mm
17/01/2021 13:148.4 °C71 %3.3 °C10 km/hNO26 km/h6.7 1029 hPa0.4 mm
17/01/2021 12:598.3 °C73 %3.9 °C6 km/hNNO26 km/h7.2 1029 hPa0.4 mm
17/01/2021 12:448.0 °C73 %3.3 °C14 km/hNO24 km/h5.0 1029 hPa0.4 mm
17/01/2021 12:297.8 °C76 %3.9 °C11 km/hONO19 km/h5.6 1029 hPa0.4 mm
17/01/2021 12:147.6 °C78 %3.9 °C8 km/hONO19 km/h6.1 1029 hPa0.4 mm
17/01/2021 11:597.4 °C81 %4.4 °C13 km/hONO19 km/h4.4 1029 hPa0.4 mm
17/01/2021 11:447.1 °C83 %4.4 °C5 km/hNNO19 km/h6.7 1028 hPa0.4 mm
17/01/2021 11:296.9 °C85 %4.4 °C6 km/hNO19 km/h6.1 1028 hPa0.4 mm
17/01/2021 11:146.4 °C87 %4.4 °C5 km/hO19 km/h6.1 1028 hPa0.4 mm
17/01/2021 10:596.3 °C87 %4.4 °C5 km/hNO19 km/h5.6 1028 hPa0.4 mm
17/01/2021 10:456.3 °C87 %4.4 °C5 km/hONO14 km/h5.6 1028 hPa0.4 mm
17/01/2021 10:306.1 °C88 %4.4 °C3 km/hOSO13 km/h5.6 1028 hPa0.4 mm
17/01/2021 10:145.6 °C88 %3.9 °C5 km/hO13 km/h5.0 1028 hPa0.4 mm
17/01/2021 09:595.4 °C87 %3.3 °C2 km/hOSO13 km/h5.6 1028 hPa0.4 mm
17/01/2021 09:445.4 °C88 %3.3 °C3 km/hOSO13 km/h5.0 1027 hPa0.4 mm
17/01/2021 09:295.3 °C87 %3.3 °C-OSO13 km/h5.6 1027 hPa0.4 mm
17/01/2021 09:145.3 °C87 %3.3 °C3 km/hOSO13 km/h5.0 1027 hPa0.4 mm
17/01/2021 08:595.4 °C88 %3.3 °C3 km/hOSO13 km/h5.0 1027 hPa0.4 mm
17/01/2021 08:445.3 °C87 %3.3 °C-O13 km/h5.6 1027 hPa0.4 mm
17/01/2021 08:295.4 °C87 %3.3 °C2 km/hO13 km/h5.6 1026 hPa0.4 mm
17/01/2021 08:145.4 °C88 %3.9 °C-O13 km/h5.6 1026 hPa0.4 mm
17/01/2021 07:595.4 °C87 %3.3 °C3 km/hOSO13 km/h5.0 1026 hPa0.4 mm
17/01/2021 07:445.4 °C87 %3.3 °C6 km/hO13 km/h4.4 1026 hPa0.4 mm
17/01/2021 07:295.5 °C88 %3.9 °C-O13 km/h5.6 1026 hPa0.4 mm
17/01/2021 07:145.5 °C88 %3.9 °C3 km/hONO13 km/h5.0 1026 hPa0.4 mm
17/01/2021 06:595.5 °C88 %3.9 °C6 km/hO13 km/h4.4 1026 hPa0.4 mm
17/01/2021 06:445.7 °C87 %3.9 °C2 km/hO13 km/h5.6 1025 hPa0.4 mm
17/01/2021 06:295.7 °C87 %3.9 °C2 km/hO13 km/h5.6 1025 hPa0.4 mm
17/01/2021 06:145.7 °C88 %3.9 °C5 km/hO13 km/h5.0 1025 hPa0.4 mm
17/01/2021 05:595.6 °C88 %3.9 °C3 km/hO13 km/h5.0 1025 hPa0.4 mm
17/01/2021 05:445.5 °C88 %3.9 °C5 km/hOSO13 km/h5.0 1025 hPa0.4 mm
17/01/2021 05:295.3 °C87 %3.3 °C6 km/hOSO13 km/h4.4 1025 hPa0.4 mm
17/01/2021 05:145.1 °C88 %3.3 °C10 km/hO13 km/h2.8 1025 hPa0.4 mm
17/01/2021 04:594.7 °C87 %2.8 °C2 km/hOSO10 km/h3.9 1025 hPa0.4 mm
17/01/2021 04:444.9 °C87 %2.8 °C2 km/hOSO10 km/h5.0 1025 hPa0.4 mm
17/01/2021 04:295.0 °C87 %2.8 °C3 km/hOSO10 km/h4.4 1025 hPa0.4 mm
17/01/2021 04:145.1 °C87 %3.3 °C-OSO10 km/h5.0 1025 hPa0.4 mm
17/01/2021 03:595.0 °C87 %2.8 °C2 km/hOSO10 km/h5.0 1025 hPa0.4 mm
17/01/2021 03:444.9 °C87 %2.8 °C3 km/hO10 km/h4.4 1025 hPa0.4 mm
17/01/2021 03:294.9 °C87 %2.8 °C2 km/hO10 km/h5.0 1025 hPa0.4 mm
17/01/2021 03:145.0 °C87 %2.8 °C2 km/hO10 km/h5.0 1025 hPa0.4 mm
17/01/2021 02:595.2 °C87 %3.3 °C3 km/hO10 km/h4.4 1025 hPa0.4 mm
17/01/2021 02:445.4 °C87 %3.3 °C2 km/hO10 km/h5.6 1025 hPa0.4 mm
17/01/2021 02:295.7 °C87 %3.9 °C2 km/hO10 km/h5.6 1024 hPa0.4 mm
17/01/2021 02:145.7 °C87 %3.9 °C-O10 km/h5.6 1024 hPa0.4 mm
17/01/2021 02:006.0 °C87 %3.9 °C-O10 km/h6.1 1024 hPa0.4 mm
17/01/2021 01:456.4 °C87 %4.4 °C2 km/hO10 km/h6.7 1024 hPa0.4 mm
17/01/2021 01:306.7 °C87 %4.4 °C2 km/hO10 km/h6.7 1025 hPa0.4 mm
17/01/2021 01:146.8 °C87 %5.0 °C3 km/hO10 km/h6.1 1024 hPa0.4 mm
17/01/2021 00:596.9 °C87 %5.0 °C2 km/hNO10 km/h7.2 1024 hPa0.2 mm
17/01/2021 00:447.1 °C87 %5.0 °C-O6 km/h7.2 1024 hPa0.2 mm
17/01/2021 00:297.1 °C87 %5.0 °C2 km/hONO6 km/h7.2 1024 hPa0.2 mm
17/01/2021 00:147.2 °C87 %5.0 °C2 km/hONO6 km/h7.2 1024 hPa0.2 mm


Minima :

Température : 4.7 °C
Humidité : 69 %
Point de rosée : 2.8 °C
Vent moyen : 2 km/h
Windchill : 2.8
Pression atm. : 1024 hPa
Maxima :

Température : 8.7 °C
Humidité : 88 %
Point de rosée : 5.0 °C
Vent moyen : 14 km/h
Windchill : 8.3
Pression atm. : 1029 hPa
Rafales max : 26 km/h
Cumul de pluie sur 24H : 0.4 mm

Saint-Michel-en-Brenne est une commune du département Indre (36).
La station météorologique du réseau de l'association la plus proche de Saint-Michel-en-Brenne est celle de Villegouin



Icône Facebook Association Météo Centre Icône Twitter Association Météo Centre Icône Chaîne Youtube Association Météo Centre Icône contact Association Météo Centre Icône Insta Association Météo Centre